createdAt,value
2022-08-23T00:00:19.804Z,16.2
2022-08-23T00:01:26.306Z,16.2
2022-08-23T00:02:27.215Z,16.1
2022-08-23T00:03:19.643Z,16.1
2022-08-23T00:04:22.211Z,16.1
2022-08-23T00:05:17.902Z,16.1
2022-08-23T00:06:23.281Z,16.1
2022-08-23T00:07:19.640Z,16.1
2022-08-23T00:08:21.172Z,16.1
2022-08-23T00:09:12.246Z,16.2
2022-08-23T00:10:07.037Z,16.2
2022-08-23T00:11:13.152Z,16.1
2022-08-23T00:12:16.403Z,16.1
2022-08-23T00:13:20.222Z,16.1
2022-08-23T00:14:21.200Z,15.9
2022-08-23T00:15:26.283Z,15.8
2022-08-23T00:16:22.781Z,15.8
2022-08-23T00:17:38.842Z,15.8
2022-08-23T00:18:07.185Z,15.8
2022-08-23T00:19:25.493Z,15.9
2022-08-23T00:20:17.322Z,15.9
2022-08-23T00:21:18.470Z,15.9
2022-08-23T00:22:21.262Z,15.9
2022-08-23T00:23:22.407Z,15.9
2022-08-23T00:24:18.045Z,15.9
2022-08-23T00:25:23.193Z,15.9
2022-08-23T00:26:18.251Z,16
2022-08-23T00:27:08.668Z,16
2022-08-23T00:28:19.217Z,16.1
2022-08-23T00:29:23.370Z,16.1
2022-08-23T00:30:22.830Z,16
2022-08-23T00:31:19.828Z,16
2022-08-23T00:32:20.063Z,16
2022-08-23T00:33:25.434Z,16
2022-08-23T00:34:19.431Z,16
2022-08-23T00:35:28.609Z,16
2022-08-23T00:36:19.058Z,16
2022-08-23T00:37:16.640Z,16
2022-08-23T00:38:37.601Z,16
2022-08-23T00:39:27.426Z,16
2022-08-23T00:40:08.351Z,16
2022-08-23T00:41:19.113Z,16
2022-08-23T00:42:18.332Z,15.9
2022-08-23T00:43:18.790Z,15.9
2022-08-23T00:44:15.702Z,15.9
2022-08-23T00:45:13.751Z,15.9
2022-08-23T00:46:22.857Z,15.9
2022-08-23T00:47:20.979Z,15.9
2022-08-23T00:48:22.484Z,15.9
2022-08-23T00:49:08.545Z,15.9
2022-08-23T00:50:27.903Z,15.9
2022-08-23T00:51:19.536Z,15.9
2022-08-23T00:52:22.057Z,15.9
2022-08-23T00:53:20.048Z,15.9
2022-08-23T00:54:18.365Z,15.8
2022-08-23T00:55:24.636Z,15.9
2022-08-23T00:56:18.225Z,15.9
2022-08-23T00:57:19.198Z,15.9
2022-08-23T00:58:19.203Z,15.9
2022-08-23T00:59:21.682Z,15.9
2022-08-23T01:00:15.928Z,15.9
2022-08-23T01:01:22.157Z,15.8
2022-08-23T01:02:19.545Z,15.7
2022-08-23T01:03:22.670Z,15.7
2022-08-23T01:04:15.053Z,15.4
2022-08-23T01:05:34.168Z,15.3
2022-08-23T01:06:08.017Z,15.3
2022-08-23T01:07:18.956Z,15.3
2022-08-23T01:08:18.681Z,15.3
2022-08-23T01:09:22.501Z,15.4
2022-08-23T01:10:20.137Z,15.4
2022-08-23T01:11:23.537Z,15.4
2022-08-23T01:12:36.951Z,15.4
2022-08-23T01:13:15.924Z,15.4
2022-08-23T01:14:24.281Z,15.4
2022-08-23T01:15:22.012Z,15.4
2022-08-23T01:16:22.232Z,15.4
2022-08-23T01:17:27.476Z,15.5
2022-08-23T01:18:21.382Z,15.4
2022-08-23T01:19:18.693Z,15.4
2022-08-23T01:20:34.024Z,15.4
2022-08-23T01:22:08.100Z,15.4
2022-08-23T01:23:24.347Z,15.4
2022-08-23T01:25:10.162Z,15.4
2022-08-23T01:25:19.203Z,15.4
2022-08-23T01:26:26.216Z,15.4
2022-08-23T01:27:19.701Z,15.4
2022-08-23T01:28:19.355Z,15.4
2022-08-23T01:29:16.615Z,15.4
2022-08-23T01:30:23.127Z,15.4
2022-08-23T01:31:16.909Z,15.3
2022-08-23T01:32:18.762Z,15.3
2022-08-23T01:33:15.897Z,15.2
2022-08-23T01:34:22.083Z,15.4
2022-08-23T01:36:18.167Z,15.4
2022-08-23T01:37:19.769Z,15.4
2022-08-23T01:38:16.570Z,15.4
2022-08-23T01:39:18.990Z,15.4
2022-08-23T01:40:07.352Z,15.4
2022-08-23T01:41:19.212Z,15.4
2022-08-23T01:42:19.158Z,15.4
2022-08-23T01:43:17.413Z,15.3
2022-08-23T01:44:16.398Z,15.3
2022-08-23T01:45:17.763Z,15.3
2022-08-23T01:46:22.947Z,15.4
2022-08-23T01:47:17.974Z,15.4
2022-08-23T01:48:24.452Z,15.4
2022-08-23T01:49:17.206Z,15.5
2022-08-23T01:50:19.045Z,15.5
2022-08-23T01:51:19.296Z,15.5
2022-08-23T01:52:19.042Z,15.4
2022-08-23T01:53:18.069Z,15.4
2022-08-23T01:54:20.060Z,15.4
2022-08-23T01:55:27.684Z,15.6
2022-08-23T01:56:38.526Z,15.6
2022-08-23T01:57:17.409Z,15.6
2022-08-23T01:58:20.812Z,15.6
2022-08-23T01:59:20.735Z,15.6
2022-08-23T02:00:20.776Z,15.6
2022-08-23T02:01:20.177Z,15.6
2022-08-23T02:03:16.856Z,15.5
2022-08-23T02:04:20.476Z,15.5
2022-08-23T02:05:23.192Z,15.5
2022-08-23T02:06:19.532Z,15.5
2022-08-23T02:07:19.863Z,15.5
2022-08-23T02:08:21.642Z,15.4
2022-08-23T02:09:23.056Z,15.4
2022-08-23T02:10:07.087Z,15.4
2022-08-23T02:11:23.654Z,15.4
2022-08-23T02:12:18.160Z,15.3
2022-08-23T02:13:22.656Z,15.3
2022-08-23T02:14:18.768Z,15.3
2022-08-23T02:15:20.259Z,15.3
2022-08-23T02:16:22.924Z,15.4
2022-08-23T02:17:26.398Z,15.4
2022-08-23T02:18:27.889Z,15.4
2022-08-23T02:19:20.000Z,15.4
2022-08-23T02:20:17.292Z,15.4
2022-08-23T02:22:22.298Z,15.4
2022-08-23T02:23:19.381Z,15.4
2022-08-23T02:24:19.707Z,15.4
2022-08-23T02:25:20.035Z,15.3
2022-08-23T02:26:19.687Z,15.3
2022-08-23T02:27:14.842Z,15.3
2022-08-23T02:28:20.771Z,15.4
2022-08-23T02:29:18.065Z,15.4
2022-08-23T02:30:21.920Z,15.4
2022-08-23T02:31:22.104Z,15.4
2022-08-23T02:32:17.335Z,15.4
2022-08-23T02:33:22.450Z,15.4
2022-08-23T02:36:26.219Z,15.4
2022-08-23T02:36:27.832Z,15.4
2022-08-23T02:37:23.296Z,15.4
2022-08-23T02:38:18.298Z,15.4
2022-08-23T02:39:33.576Z,15.4
2022-08-23T02:40:08.561Z,15.4
2022-08-23T02:41:19.361Z,15.4
2022-08-23T02:42:20.100Z,15.4
2022-08-23T02:43:25.867Z,15.4
2022-08-23T02:44:17.331Z,15.4
2022-08-23T02:45:28.633Z,15.4
2022-08-23T02:46:16.998Z,15.4
2022-08-23T02:47:30.479Z,15.4
2022-08-23T02:48:18.177Z,15.4
2022-08-23T02:49:16.406Z,15.4
2022-08-23T02:50:16.560Z,15.4
2022-08-23T02:51:15.695Z,15.4
2022-08-23T02:52:13.577Z,15.4
2022-08-23T02:53:21.268Z,15.3
2022-08-23T02:54:24.794Z,15.3
2022-08-23T02:55:22.044Z,15.3
2022-08-23T02:56:25.778Z,15.3
2022-08-23T02:57:19.527Z,15.3
2022-08-23T02:58:19.556Z,15.3
2022-08-23T02:59:22.563Z,15.2
2022-08-23T03:00:25.541Z,15.2
2022-08-23T03:01:18.931Z,15.2
2022-08-23T03:02:21.479Z,15.1
2022-08-23T03:03:24.678Z,15.2
2022-08-23T03:04:19.794Z,15.2
2022-08-23T03:05:17.423Z,15.2
2022-08-23T03:06:29.516Z,15.2
2022-08-23T03:07:17.360Z,15.1
2022-08-23T03:08:15.479Z,15.1
2022-08-23T03:09:20.221Z,15.1
2022-08-23T03:10:07.710Z,14.8
2022-08-23T03:11:24.569Z,14.9
2022-08-23T03:12:15.533Z,14.9
2022-08-23T03:13:19.751Z,14.9
2022-08-23T03:14:26.108Z,14.9
2022-08-23T03:15:24.036Z,14.9
2022-08-23T03:16:18.634Z,14.9
2022-08-23T03:17:20.045Z,14.9
2022-08-23T03:18:19.806Z,15
2022-08-23T03:19:32.564Z,14.9
2022-08-23T03:20:07.910Z,14.9
2022-08-23T03:21:18.210Z,14.9
2022-08-23T03:22:24.660Z,14.9
2022-08-23T03:23:18.960Z,14.8
2022-08-23T03:24:25.417Z,14.8
2022-08-23T03:25:26.105Z,14.8
2022-08-23T03:26:23.918Z,14.8
2022-08-23T03:27:20.858Z,14.8
2022-08-23T03:28:19.601Z,14.8
2022-08-23T03:29:22.597Z,14.8
2022-08-23T03:30:23.849Z,14.7
2022-08-23T03:31:22.561Z,14.8
2022-08-23T03:32:27.136Z,14.7
2022-08-23T03:33:07.499Z,14.7
2022-08-23T03:34:22.211Z,14.7
2022-08-23T03:35:19.685Z,14.6
2022-08-23T03:36:16.542Z,14.6
2022-08-23T03:37:20.950Z,14.6
2022-08-23T03:38:22.469Z,14.6
2022-08-23T03:39:33.514Z,14.5
2022-08-23T03:40:08.282Z,14.5
2022-08-23T03:41:13.222Z,14.6
2022-08-23T03:42:17.943Z,14.6
2022-08-23T03:43:16.320Z,14.6
2022-08-23T03:44:22.426Z,14.5
2022-08-23T03:45:19.982Z,14.5
2022-08-23T03:46:19.289Z,14.5
2022-08-23T03:47:25.949Z,14.4
2022-08-23T03:48:20.214Z,14.4
2022-08-23T03:49:18.620Z,14.4
2022-08-23T03:50:19.046Z,14.4
2022-08-23T03:51:07.287Z,14.4
2022-08-23T03:52:23.668Z,14.4
2022-08-23T03:53:17.773Z,14.4
2022-08-23T03:54:18.345Z,14.4
2022-08-23T03:55:17.447Z,14.4
2022-08-23T03:56:25.528Z,14.3
2022-08-23T03:57:22.606Z,14.3
2022-08-23T03:58:18.787Z,14.3
2022-08-23T03:59:24.366Z,14.2
2022-08-23T04:00:24.829Z,14.3
2022-08-23T04:01:28.386Z,14.3
2022-08-23T04:02:17.218Z,14.3
2022-08-23T04:03:31.345Z,14.3
2022-08-23T04:04:08.188Z,14.3
2022-08-23T04:05:20.998Z,14.3
2022-08-23T04:06:17.534Z,14.3
2022-08-23T04:07:17.746Z,14.3
2022-08-23T04:08:31.876Z,14.2
2022-08-23T04:09:24.587Z,14.1
2022-08-23T04:10:07.924Z,14.1
2022-08-23T04:11:31.374Z,14.1
2022-08-23T04:12:20.011Z,14.1
2022-08-23T04:13:09.570Z,14.1
2022-08-23T04:14:19.484Z,14.1
2022-08-23T04:15:21.954Z,14
2022-08-23T04:16:17.791Z,14
2022-08-23T04:17:19.654Z,13.8
2022-08-23T04:18:27.380Z,13.8
2022-08-23T04:19:18.415Z,13.8
2022-08-23T04:20:20.128Z,13.8
2022-08-23T04:21:22.415Z,13.5
2022-08-23T04:22:18.391Z,13.5
2022-08-23T04:23:22.611Z,13.3
2022-08-23T04:24:39.178Z,13.3
2022-08-23T04:26:13.992Z,13.3
2022-08-23T04:27:23.336Z,13.4
2022-08-23T04:28:17.691Z,13.4
2022-08-23T04:29:38.051Z,13.4
2022-08-23T04:30:22.426Z,13.4
2022-08-23T04:31:17.421Z,13.4
2022-08-23T04:32:30.160Z,13.6
2022-08-23T04:33:26.535Z,13.6
2022-08-23T04:34:30.691Z,13.6
2022-08-23T04:35:26.045Z,13.6
2022-08-23T04:36:18.941Z,13.6
2022-08-23T04:37:26.378Z,13.6
2022-08-23T04:38:29.146Z,13.6
2022-08-23T04:39:25.257Z,13.7
2022-08-23T04:40:07.625Z,13.7
2022-08-23T04:41:20.809Z,13.6
2022-08-23T04:42:19.316Z,13.6
2022-08-23T04:43:21.140Z,13.6
2022-08-23T04:44:25.712Z,13.6
2022-08-23T04:45:16.343Z,13.6
2022-08-23T04:46:22.934Z,13.6
2022-08-23T04:47:17.676Z,13.6
2022-08-23T04:48:18.259Z,13.6
2022-08-23T04:49:26.571Z,13.6
2022-08-23T04:50:24.072Z,13.6
2022-08-23T04:51:17.324Z,13.8
2022-08-23T04:52:23.149Z,13.8
2022-08-23T04:53:20.590Z,13.8
2022-08-23T04:54:26.731Z,13.8
2022-08-23T04:55:20.013Z,13.8
2022-08-23T04:56:21.978Z,13.8
2022-08-23T04:57:21.149Z,13.8
2022-08-23T04:58:16.318Z,13.9
2022-08-23T04:59:17.342Z,13.9
2022-08-23T05:00:29.249Z,13.9
2022-08-23T05:01:19.353Z,13.9
2022-08-23T05:02:17.161Z,13.9
2022-08-23T05:03:15.126Z,13.9
2022-08-23T05:04:23.223Z,13.9
2022-08-23T05:05:19.109Z,13.9
2022-08-23T05:06:20.211Z,13.8
2022-08-23T05:07:18.129Z,13.8
2022-08-23T05:08:19.160Z,13.9
2022-08-23T05:09:24.779Z,13.9
2022-08-23T05:10:11.015Z,13.9
2022-08-23T05:11:19.317Z,14
2022-08-23T05:12:27.146Z,13.9
2022-08-23T05:13:17.833Z,14
2022-08-23T05:14:18.674Z,14.1
2022-08-23T05:15:21.792Z,14.1
2022-08-23T05:16:20.168Z,14.1
2022-08-23T05:17:19.843Z,14.1
2022-08-23T05:18:19.894Z,14.2
2022-08-23T05:19:16.992Z,14.1
2022-08-23T05:20:19.163Z,14.1
2022-08-23T05:21:18.597Z,14.2
2022-08-23T05:22:18.786Z,14.1
2022-08-23T05:23:33.727Z,14.2
2022-08-23T05:24:19.368Z,14.3
2022-08-23T05:25:19.555Z,14.3
2022-08-23T05:26:21.302Z,14.3
2022-08-23T05:27:21.524Z,14.3
2022-08-23T05:28:17.260Z,14.3
2022-08-23T05:29:17.613Z,14.4
2022-08-23T05:30:22.309Z,14.4
2022-08-23T05:31:20.309Z,14.4
2022-08-23T05:32:19.679Z,14.5
2022-08-23T05:33:21.871Z,14.5
2022-08-23T05:34:24.635Z,14.6
2022-08-23T05:35:19.396Z,14.6
2022-08-23T05:36:20.725Z,14.6
2022-08-23T05:37:15.646Z,14.6
2022-08-23T05:38:24.795Z,14.6
2022-08-23T05:39:39.088Z,14.7
2022-08-23T05:40:09.726Z,14.7
2022-08-23T05:41:38.106Z,14.8
2022-08-23T05:42:47.050Z,14.9
2022-08-23T05:43:07.013Z,14.9
2022-08-23T05:44:16.516Z,14.9
2022-08-23T05:45:25.955Z,15
2022-08-23T05:46:22.708Z,15
2022-08-23T05:47:29.050Z,15
2022-08-23T05:48:22.584Z,15
2022-08-23T05:49:29.017Z,15.1
2022-08-23T05:50:37.078Z,15.1
2022-08-23T05:51:07.610Z,15.1
2022-08-23T05:52:18.498Z,15.6
2022-08-23T05:53:19.845Z,16.1
2022-08-23T05:54:18.178Z,16.1
2022-08-23T05:55:27.595Z,16.2
2022-08-23T05:56:15.005Z,16.2
2022-08-23T05:57:19.661Z,16.1
2022-08-23T05:58:21.741Z,16
2022-08-23T05:59:24.870Z,16
2022-08-23T06:00:22.672Z,16
2022-08-23T06:01:07.246Z,16
2022-08-23T06:02:22.072Z,16.1
2022-08-23T06:03:15.843Z,16.2
2022-08-23T06:04:25.492Z,16.3
2022-08-23T06:05:19.206Z,16.3
2022-08-23T06:06:16.945Z,16.3
2022-08-23T06:07:20.799Z,16.6
2022-08-23T06:08:07.424Z,16.6
2022-08-23T06:09:22.971Z,16.6
2022-08-23T06:10:07.871Z,16.6
2022-08-23T06:11:18.345Z,16.7
2022-08-23T06:12:23.439Z,16.7
2022-08-23T06:13:18.149Z,16.7
2022-08-23T06:14:20.696Z,16.9
2022-08-23T06:15:24.090Z,17
2022-08-23T06:16:19.379Z,17
2022-08-23T06:17:20.932Z,17.1
2022-08-23T06:18:24.490Z,17.1
2022-08-23T06:19:21.140Z,17.2
2022-08-23T06:20:22.135Z,17.4
2022-08-23T06:21:20.887Z,17.4
2022-08-23T06:22:22.263Z,17.8
2022-08-23T06:23:20.594Z,17.8
2022-08-23T06:24:22.082Z,17.5
2022-08-23T06:25:19.659Z,17.5
2022-08-23T06:26:20.610Z,17.5
2022-08-23T06:27:20.661Z,17.8
2022-08-23T06:28:07.302Z,18.1
2022-08-23T06:29:21.246Z,18.4
2022-08-23T06:30:17.867Z,18.3
2022-08-23T06:31:20.369Z,18.1
2022-08-23T06:32:20.712Z,18.2
2022-08-23T06:33:23.304Z,18.2
2022-08-23T06:34:16.394Z,18.2
2022-08-23T06:35:42.290Z,18.4
2022-08-23T06:36:17.919Z,18.4
2022-08-23T06:37:23.179Z,18.5
2022-08-23T06:38:19.070Z,18.5
2022-08-23T06:39:20.304Z,18.5
2022-08-23T06:40:08.262Z,18.5
2022-08-23T06:41:22.468Z,18.8
2022-08-23T06:42:42.337Z,18.8
2022-08-23T06:43:15.762Z,18.8
2022-08-23T06:44:18.601Z,19.1
2022-08-23T06:45:18.513Z,19.3
2022-08-23T06:46:20.825Z,19.5
2022-08-23T06:47:23.136Z,19.8
2022-08-23T06:48:23.073Z,20.4
2022-08-23T06:49:20.987Z,20.9
2022-08-23T06:50:15.836Z,20.9
2022-08-23T06:51:20.752Z,21.1
2022-08-23T06:52:20.862Z,21.2
2022-08-23T06:53:21.177Z,21.2
2022-08-23T06:54:20.349Z,21.2
2022-08-23T06:55:20.531Z,21.2
2022-08-23T06:56:21.544Z,20.8
2022-08-23T06:57:24.386Z,20.3
2022-08-23T06:58:21.061Z,20.3
2022-08-23T06:59:15.509Z,20.3
2022-08-23T07:00:23.600Z,19.9
2022-08-23T07:01:51.198Z,19.9
2022-08-23T07:02:20.079Z,20.1
2022-08-23T07:03:21.481Z,20
2022-08-23T07:04:17.475Z,20
2022-08-23T07:05:23.632Z,19.6
2022-08-23T07:06:18.435Z,19.6
2022-08-23T07:07:19.311Z,19.6
2022-08-23T07:08:19.399Z,19.5
2022-08-23T07:09:21.533Z,19.6
2022-08-23T07:10:13.775Z,19.6
2022-08-23T07:11:23.858Z,19.5
2022-08-23T07:12:21.360Z,19.5
2022-08-23T07:13:22.918Z,19.5
2022-08-23T07:14:18.604Z,19.5
2022-08-23T07:15:21.160Z,19.6
2022-08-23T07:16:21.307Z,19.6
2022-08-23T07:17:18.988Z,19.6
2022-08-23T07:18:21.407Z,19.6
2022-08-23T07:19:22.458Z,19.6
2022-08-23T07:20:22.629Z,19.7
2022-08-23T07:21:14.916Z,19.7
2022-08-23T07:22:17.916Z,19.6
2022-08-23T07:23:20.840Z,19.7
2022-08-23T07:24:17.081Z,19.8
2022-08-23T07:25:24.433Z,19.8
2022-08-23T07:26:24.147Z,19.6
2022-08-23T07:27:21.496Z,19.5
2022-08-23T07:28:21.384Z,19.6
2022-08-23T07:29:19.140Z,19.6
2022-08-23T07:30:14.010Z,19.8
2022-08-23T07:31:19.081Z,19.8
2022-08-23T07:32:23.002Z,19.9
2022-08-23T07:33:24.537Z,19.9
2022-08-23T07:34:17.703Z,19.9
2022-08-23T07:35:25.858Z,19.9
2022-08-23T07:36:24.356Z,19.9
2022-08-23T07:37:21.019Z,19.9
2022-08-23T07:38:15.305Z,19.8
2022-08-23T07:39:25.812Z,19.8
2022-08-23T07:40:07.850Z,19.9
2022-08-23T07:41:21.898Z,19.9
2022-08-23T07:42:27.884Z,20
2022-08-23T07:43:15.997Z,20.1
2022-08-23T07:44:27.299Z,20
2022-08-23T07:45:26.058Z,20
2022-08-23T07:46:24.977Z,20.2
2022-08-23T07:47:19.264Z,20.2
2022-08-23T07:48:56.460Z,20.3
2022-08-23T07:49:18.692Z,20.3
2022-08-23T07:50:24.111Z,20.4
2022-08-23T07:51:19.216Z,20.3
2022-08-23T07:52:17.976Z,20.3
2022-08-23T07:53:37.930Z,20.4
2022-08-23T07:54:16.615Z,20.6
2022-08-23T07:55:25.751Z,20.6
2022-08-23T07:56:21.645Z,20.6
2022-08-23T07:57:17.442Z,20.6
2022-08-23T07:58:17.075Z,20.4
2022-08-23T07:59:14.355Z,20.5
2022-08-23T08:00:20.935Z,20.5
2022-08-23T08:01:15.801Z,20.6
2022-08-23T08:02:23.223Z,20.6
2022-08-23T08:03:21.303Z,20.8
2022-08-23T08:04:25.550Z,20.8
2022-08-23T08:05:26.009Z,21
2022-08-23T08:06:17.913Z,21
2022-08-23T08:07:26.648Z,21.1
2022-08-23T08:08:15.784Z,20.9
2022-08-23T08:09:28.364Z,20.9
2022-08-23T08:10:09.199Z,20.8
2022-08-23T08:11:20.058Z,20.8
2022-08-23T08:12:24.261Z,20.9
2022-08-23T08:13:27.078Z,20.9
2022-08-23T08:14:17.297Z,21.1
2022-08-23T08:15:18.746Z,21.1
2022-08-23T08:16:22.787Z,21.3
2022-08-23T08:17:17.144Z,21.4
2022-08-23T08:18:16.102Z,21.4
2022-08-23T08:19:25.198Z,21.5
2022-08-23T08:20:19.565Z,21.5
2022-08-23T08:21:18.904Z,21.5
2022-08-23T08:22:19.457Z,21.3
2022-08-23T08:23:24.007Z,21.3
2022-08-23T08:24:20.498Z,21.3
2022-08-23T08:25:25.593Z,21.3
2022-08-23T08:26:16.786Z,21.3
2022-08-23T08:27:19.150Z,21.6
2022-08-23T08:28:20.197Z,21.9
2022-08-23T08:29:25.026Z,21.9
2022-08-23T08:30:17.344Z,21.8
2022-08-23T08:31:21.387Z,21.8
2022-08-23T08:32:21.285Z,21.7
2022-08-23T08:33:34.221Z,21.7
2022-08-23T08:34:22.354Z,21.6
2022-08-23T08:35:17.853Z,21.5
2022-08-23T08:36:20.271Z,21.5
2022-08-23T08:37:22.504Z,21.4
2022-08-23T08:38:28.806Z,21.4
2022-08-23T08:39:21.481Z,21.4
2022-08-23T08:40:09.183Z,21.9
2022-08-23T08:41:19.907Z,22.3
2022-08-23T08:42:19.998Z,22.1
2022-08-23T08:43:17.485Z,21.9
2022-08-23T08:44:21.295Z,21.9
2022-08-23T08:45:23.777Z,22
2022-08-23T08:46:21.033Z,22
2022-08-23T08:47:22.560Z,22.3
2022-08-23T08:48:21.787Z,22.4
2022-08-23T08:49:20.986Z,22.6
2022-08-23T08:50:19.405Z,22.6
2022-08-23T08:51:16.818Z,22.6
2022-08-23T08:52:18.872Z,22.6
2022-08-23T08:53:19.452Z,22.6
2022-08-23T08:54:20.182Z,22.6
2022-08-23T08:55:20.958Z,22.1
2022-08-23T08:56:21.905Z,22.1
2022-08-23T08:57:22.609Z,21.9
2022-08-23T08:58:16.509Z,21.9
2022-08-23T08:59:22.675Z,22.1
2022-08-23T09:00:14.467Z,22.2
2022-08-23T09:01:17.581Z,22.1
2022-08-23T09:02:36.411Z,22.1
2022-08-23T09:03:21.337Z,22.6
2022-08-23T09:04:21.295Z,22.9
2022-08-23T09:05:20.488Z,22.9
2022-08-23T09:06:18.777Z,22.9
2022-08-23T09:07:17.109Z,22.9
2022-08-23T09:08:24.403Z,22.9
2022-08-23T09:09:22.741Z,23.2
2022-08-23T09:10:08.274Z,23.2
2022-08-23T09:11:18.460Z,23.3
2022-08-23T09:12:20.404Z,23.2
2022-08-23T09:13:22.239Z,23.2
2022-08-23T09:14:18.339Z,23.3
2022-08-23T09:15:24.692Z,23.1
2022-08-23T09:16:24.041Z,23.1
2022-08-23T09:17:22.963Z,23.3
2022-08-23T09:18:24.666Z,23.3
2022-08-23T09:19:17.400Z,23.1
2022-08-23T09:20:18.976Z,23.1
2022-08-23T09:21:23.574Z,23.2
2022-08-23T09:22:16.901Z,23.2
2022-08-23T09:23:18.613Z,23.2
2022-08-23T09:24:17.328Z,22.9
2022-08-23T09:25:20.075Z,22.8
2022-08-23T09:26:16.032Z,22.6
2022-08-23T09:27:16.800Z,22.7
2022-08-23T09:28:16.772Z,22.7
2022-08-23T09:29:22.181Z,23.1
2022-08-23T09:30:19.964Z,23.5
2022-08-23T09:31:21.938Z,23.5
2022-08-23T09:32:20.519Z,23.2
2022-08-23T09:33:20.835Z,23.2
2022-08-23T09:34:19.451Z,23.2
2022-08-23T09:35:23.962Z,23.4
2022-08-23T09:36:16.215Z,23.8
2022-08-23T09:37:17.584Z,23.8
2022-08-23T09:38:24.163Z,23.6
2022-08-23T09:39:32.507Z,23.4
2022-08-23T09:40:07.272Z,23.4
2022-08-23T09:41:20.100Z,23.5
2022-08-23T09:42:26.441Z,23.6
2022-08-23T09:43:10.271Z,23.6
2022-08-23T09:44:18.312Z,23.6
2022-08-23T09:45:18.692Z,24.3
2022-08-23T09:46:26.381Z,23.8
2022-08-23T09:47:23.420Z,23.4
2022-08-23T09:48:16.368Z,23.4
2022-08-23T09:49:22.221Z,23.6
2022-08-23T09:50:15.965Z,23.6
2022-08-23T09:51:18.809Z,23.8
2022-08-23T09:52:27.650Z,23.8
2022-08-23T09:53:15.067Z,24.1
2022-08-23T09:54:20.052Z,23.8
2022-08-23T09:55:24.591Z,23.8
2022-08-23T09:56:18.867Z,23.5
2022-08-23T09:57:18.668Z,23.4
2022-08-23T09:58:24.643Z,23.6
2022-08-23T09:59:19.576Z,23.6
2022-08-23T10:00:16.545Z,23.5
2022-08-23T10:01:19.336Z,23.5
2022-08-23T10:02:15.305Z,23.7
2022-08-23T10:03:20.298Z,23.4
2022-08-23T10:04:26.390Z,23.5
2022-08-23T10:05:19.486Z,23.8
2022-08-23T10:06:18.206Z,23.8
2022-08-23T10:07:17.845Z,24.1
2022-08-23T10:08:25.269Z,24.1
2022-08-23T10:09:22.687Z,24.2
2022-08-23T10:10:07.176Z,24.2
2022-08-23T10:11:24.994Z,24.2
2022-08-23T10:12:20.716Z,23.9
2022-08-23T10:13:31.946Z,23.8
2022-08-23T10:14:32.150Z,23.8
2022-08-23T10:15:24.906Z,23.9
2022-08-23T10:16:19.178Z,23.9
2022-08-23T10:17:26.551Z,23.7
2022-08-23T10:18:17.164Z,24.3
2022-08-23T10:19:17.790Z,24.6
2022-08-23T10:20:21.308Z,24.6
2022-08-23T10:21:27.931Z,24.9
2022-08-23T10:22:20.936Z,25
2022-08-23T10:23:16.552Z,25
2022-08-23T10:24:19.146Z,24.6
2022-08-23T10:25:21.193Z,24.6
2022-08-23T10:26:21.924Z,24.4
2022-08-23T10:27:18.267Z,24.4
2022-08-23T10:28:21.916Z,24.4
2022-08-23T10:29:19.567Z,24.4
2022-08-23T10:30:37.439Z,24.9
2022-08-23T10:31:08.285Z,24.9
2022-08-23T10:32:22.466Z,25.3
2022-08-23T10:33:25.368Z,25.3
2022-08-23T10:34:20.788Z,25.3
2022-08-23T10:35:21.017Z,25.3
2022-08-23T10:36:22.318Z,24.9
2022-08-23T10:37:22.308Z,24.8
2022-08-23T10:38:20.654Z,24.3
2022-08-23T10:39:26.050Z,24
2022-08-23T10:40:09.147Z,24
2022-08-23T10:41:19.497Z,23.9
2022-08-23T10:42:19.706Z,23.8
2022-08-23T10:43:21.575Z,23.8
2022-08-23T10:44:20.199Z,23.8
2022-08-23T10:45:17.882Z,24.3
2022-08-23T10:46:22.650Z,24.3
2022-08-23T10:47:24.109Z,24.3
2022-08-23T10:48:15.267Z,24.3
2022-08-23T10:49:18.048Z,24.3
2022-08-23T10:50:21.547Z,24.8
2022-08-23T10:51:33.349Z,24.8
2022-08-23T10:52:18.321Z,24.9
2022-08-23T10:53:39.651Z,24.9
2022-08-23T10:54:06.618Z,24.7
2022-08-23T10:55:16.899Z,24.6
2022-08-23T10:56:22.246Z,24.9
2022-08-23T10:57:18.013Z,25.3
2022-08-23T10:58:21.903Z,25.1
2022-08-23T10:59:19.592Z,25.1
2022-08-23T11:00:18.251Z,25.1
2022-08-23T11:01:23.088Z,25.1
2022-08-23T11:02:20.221Z,25.1
2022-08-23T11:03:16.549Z,25.1
2022-08-23T11:04:17.057Z,25.1
2022-08-23T11:05:23.354Z,24.8
2022-08-23T11:06:17.964Z,24.6
2022-08-23T11:07:18.575Z,24.6
2022-08-23T11:08:24.477Z,24.6
2022-08-23T11:09:21.538Z,24.8
2022-08-23T11:10:18.460Z,24.8
2022-08-23T11:11:21.995Z,25.5
2022-08-23T11:12:16.309Z,25.1
2022-08-23T11:13:21.942Z,24.9
2022-08-23T11:14:16.942Z,25
2022-08-23T11:15:20.292Z,25.2
2022-08-23T11:16:17.922Z,25.6
2022-08-23T11:17:17.452Z,25.2
2022-08-23T11:18:26.609Z,25.1
2022-08-23T11:19:21.642Z,25.6
2022-08-23T11:20:20.699Z,25.9
2022-08-23T11:21:15.283Z,26
2022-08-23T11:22:23.808Z,26
2022-08-23T11:23:19.774Z,25.6
2022-08-23T11:24:20.311Z,25.6
2022-08-23T11:25:20.061Z,25.1
2022-08-23T11:26:17.444Z,25.1
2022-08-23T11:27:22.487Z,25.3
2022-08-23T11:28:18.547Z,25.3
2022-08-23T11:29:18.291Z,25.4
2022-08-23T11:30:19.456Z,25.3
2022-08-23T11:31:15.873Z,25.7
2022-08-23T11:32:20.273Z,25.7
2022-08-23T11:33:24.589Z,25.7
2022-08-23T11:34:20.275Z,26.1
2022-08-23T11:35:21.262Z,26.1
2022-08-23T11:36:16.794Z,25.9
2022-08-23T11:37:15.469Z,25.9
2022-08-23T11:38:12.823Z,26.1
2022-08-23T11:39:29.626Z,26.3
2022-08-23T11:40:07.824Z,26.3
2022-08-23T11:41:19.585Z,26
2022-08-23T11:42:18.173Z,26.1
2022-08-23T11:43:30.288Z,25.5
2022-08-23T11:44:09.655Z,25.3
2022-08-23T11:45:21.191Z,25.3
2022-08-23T11:46:15.327Z,25.7
2022-08-23T11:47:22.227Z,25.3
2022-08-23T11:48:20.125Z,25.4
2022-08-23T11:49:17.935Z,25.8
2022-08-23T11:50:19.145Z,25.8
2022-08-23T11:51:16.889Z,25.6
2022-08-23T11:52:19.835Z,25.8
2022-08-23T11:53:21.046Z,25.8
2022-08-23T11:54:20.224Z,25.9
2022-08-23T11:55:20.623Z,25.8
2022-08-23T11:56:20.116Z,25.6
2022-08-23T11:57:23.444Z,25.9
2022-08-23T11:58:17.486Z,25.9
2022-08-23T11:59:27.930Z,25.6
2022-08-23T12:00:21.043Z,25.8
2022-08-23T12:01:23.348Z,26
2022-08-23T12:02:20.349Z,26
2022-08-23T12:03:19.345Z,25.9
2022-08-23T12:04:19.843Z,25.9
2022-08-23T12:05:20.040Z,25.9
2022-08-23T12:06:17.669Z,25.9
2022-08-23T12:07:17.324Z,26.2
2022-08-23T12:08:28.666Z,26.4
2022-08-23T12:09:20.202Z,26.4
2022-08-23T12:10:06.142Z,26.4
2022-08-23T12:11:22.682Z,26.5
2022-08-23T12:12:17.197Z,26.4
2022-08-23T12:13:16.603Z,26.4
2022-08-23T12:14:18.785Z,26.3
2022-08-23T12:15:19.148Z,26.3
2022-08-23T12:16:21.604Z,26.3
2022-08-23T12:17:17.380Z,26.3
2022-08-23T12:18:27.277Z,26.7
2022-08-23T12:19:21.756Z,26.8
2022-08-23T12:20:24.295Z,26.8
2022-08-23T12:21:16.891Z,26.6
2022-08-23T12:22:16.259Z,26.4
2022-08-23T12:23:18.371Z,26.8
2022-08-23T12:24:17.854Z,26.8
2022-08-23T12:25:20.279Z,26.8
2022-08-23T12:26:28.559Z,26.8
2022-08-23T12:27:22.860Z,26.6
2022-08-23T12:28:20.618Z,26.6
2022-08-23T12:29:18.729Z,26.6
2022-08-23T12:30:22.774Z,26.4
2022-08-23T12:31:22.613Z,26.6
2022-08-23T12:32:14.670Z,26.6
2022-08-23T12:33:16.554Z,26.7
2022-08-23T12:34:18.948Z,26.8
2022-08-23T12:35:19.493Z,26.8
2022-08-23T12:36:22.638Z,26.8
2022-08-23T12:37:21.744Z,26.8
2022-08-23T12:38:19.338Z,26.6
2022-08-23T12:39:23.593Z,26.8
2022-08-23T12:40:07.515Z,26.8
2022-08-23T12:41:19.551Z,26.3
2022-08-23T12:42:19.366Z,26.2
2022-08-23T12:43:26.405Z,26.1
2022-08-23T12:44:18.262Z,26
2022-08-23T12:45:18.115Z,26
2022-08-23T12:46:17.801Z,26.4
2022-08-23T12:47:22.704Z,26.1
2022-08-23T12:48:19.482Z,26.1
2022-08-23T12:49:19.759Z,26.4
2022-08-23T12:50:15.443Z,26.6
2022-08-23T12:51:19.357Z,26.6
2022-08-23T12:52:19.311Z,26.6
2022-08-23T12:53:17.881Z,26.6
2022-08-23T12:54:22.634Z,26.1
2022-08-23T12:55:18.399Z,26.3
2022-08-23T12:56:20.391Z,26.3
2022-08-23T12:57:20.026Z,26.5
2022-08-23T12:58:20.573Z,26.5
2022-08-23T12:59:20.727Z,26.7
2022-08-23T13:00:22.115Z,26.7
2022-08-23T13:01:32.216Z,26.4
2022-08-23T13:02:22.855Z,26.6
2022-08-23T13:03:24.229Z,26.7
2022-08-23T13:04:17.158Z,26.8
2022-08-23T13:05:18.873Z,26.8
2022-08-23T13:06:23.609Z,26.9
2022-08-23T13:07:18.342Z,26.8
2022-08-23T13:08:34.268Z,26.8
2022-08-23T13:09:38.096Z,26.8
2022-08-23T13:10:07.813Z,26.9
2022-08-23T13:11:19.010Z,27.1
2022-08-23T13:12:26.441Z,27.1
2022-08-23T13:13:14.746Z,27.1
2022-08-23T13:14:22.736Z,27.1
2022-08-23T13:15:20.369Z,26.8
2022-08-23T13:16:16.421Z,26.3
2022-08-23T13:17:18.837Z,26.3
2022-08-23T13:18:19.715Z,26.3
2022-08-23T13:19:19.033Z,26.3
2022-08-23T13:20:17.781Z,26.3
2022-08-23T13:21:21.686Z,26.6
2022-08-23T13:22:18.958Z,26.6
2022-08-23T13:23:22.661Z,26.4
2022-08-23T13:24:18.162Z,26.4
2022-08-23T13:25:34.909Z,26.8
2022-08-23T13:26:20.564Z,26.8
2022-08-23T13:27:19.350Z,26.8